createdAt,value
2022-11-12T00:00:43.006Z,103165.88
2022-11-12T00:03:32.505Z,103139.78
2022-11-12T00:06:20.131Z,103213.53
2022-11-12T00:09:07.462Z,103124.31
2022-11-12T00:11:54.911Z,103258.66
2022-11-12T00:14:41.767Z,103276.28
2022-11-12T00:17:29.292Z,103172.03
2022-11-12T00:20:18.185Z,103162.09
2022-11-12T00:23:05.546Z,103250.97
2022-11-12T00:26:00.981Z,103226.31
2022-11-12T00:28:47.992Z,103244.13
2022-11-12T00:31:35.486Z,103214.94
2022-11-12T00:34:22.566Z,103034.50
2022-11-12T00:37:10.826Z,103208.56
2022-11-12T00:39:57.723Z,103202.16
2022-11-12T00:42:45.117Z,103263.53
2022-11-12T00:45:32.632Z,103266.22
2022-11-12T00:48:19.783Z,103232.13
2022-11-12T00:51:07.697Z,103249.56
2022-11-12T00:53:57.703Z,103291.97
2022-11-12T00:56:46.966Z,103262.53
2022-11-12T00:59:34.501Z,103039.84
2022-11-12T01:02:22.320Z,103162.59
2022-11-12T01:05:10.001Z,103286.22
2022-11-12T01:07:57.218Z,103254.31
2022-11-12T01:10:47.522Z,103270.13
2022-11-12T01:13:37.782Z,103285.13
2022-11-12T01:16:30.992Z,103195.53
2022-11-12T01:19:17.853Z,103266.41
2022-11-12T01:22:04.925Z,103153.38
2022-11-12T01:24:52.090Z,103149.91
2022-11-12T01:27:40.808Z,103233.25
2022-11-12T01:30:28.238Z,103247.47
2022-11-12T01:33:15.233Z,103151.78
2022-11-12T01:36:03.470Z,103278.84
2022-11-12T01:38:51.319Z,103294.19
2022-11-12T01:41:41.319Z,103285.38
2022-11-12T01:44:33.261Z,103272.53
2022-11-12T01:47:25.422Z,103014.34
2022-11-12T01:50:22.587Z,103275.00
2022-11-12T01:53:13.521Z,103275.00
2022-11-12T01:56:01.289Z,103278.38
2022-11-12T01:58:53.105Z,103256.50
2022-11-12T02:01:42.461Z,103180.06
2022-11-12T02:04:29.508Z,103186.22
2022-11-12T02:07:18.112Z,103200.00
2022-11-12T02:10:07.428Z,103263.38
2022-11-12T02:13:13.293Z,103090.03
2022-11-12T02:16:00.379Z,103253.56
2022-11-12T02:18:49.614Z,103266.34
2022-11-12T02:21:38.875Z,103063.56
2022-11-12T02:24:38.026Z,103205.19
2022-11-12T02:27:26.064Z,103253.13
2022-11-12T02:30:13.904Z,103216.13
2022-11-12T02:33:01.004Z,103275.38
2022-11-12T02:35:48.025Z,103268.47
2022-11-12T02:38:36.364Z,103235.16
2022-11-12T02:41:23.902Z,103269.81
2022-11-12T02:44:10.737Z,103264.72
2022-11-12T02:46:59.997Z,103271.41
2022-11-12T02:49:47.108Z,103210.81
2022-11-12T02:52:34.937Z,103105.94
2022-11-12T02:55:23.190Z,103156.53
2022-11-12T02:58:10.794Z,103087.78
2022-11-12T03:00:59.047Z,103222.81
2022-11-12T03:03:46.323Z,103240.84
2022-11-12T03:06:33.343Z,103258.81
2022-11-12T03:09:20.574Z,103103.94
2022-11-12T03:12:09.029Z,103138.78
2022-11-12T03:14:57.046Z,103262.97
2022-11-12T03:17:43.876Z,102978.00
2022-11-12T03:20:31.358Z,103251.56
2022-11-12T03:23:18.611Z,103202.81
2022-11-12T03:26:06.118Z,103207.53
2022-11-12T03:28:54.562Z,103150.69
2022-11-12T03:31:43.116Z,103261.59
2022-11-12T03:34:30.211Z,103243.88
2022-11-12T03:37:17.352Z,103253.19
2022-11-12T03:40:04.753Z,103033.56
2022-11-12T03:42:53.218Z,103256.59
2022-11-12T03:45:41.647Z,102943.94
2022-11-12T03:48:29.330Z,103189.09
2022-11-12T03:51:18.698Z,103196.44
2022-11-12T03:54:08.823Z,103176.47
2022-11-12T03:56:56.149Z,103143.44
2022-11-12T03:59:43.258Z,103237.28
2022-11-12T04:02:31.680Z,103256.44
2022-11-12T04:05:36.567Z,103054.72
2022-11-12T04:08:38.308Z,103265.16
2022-11-12T04:11:25.659Z,103233.13
2022-11-12T04:14:11.620Z,103098.50
2022-11-12T04:17:16.166Z,103257.81
2022-11-12T04:20:22.467Z,103226.00
2022-11-12T04:23:09.437Z,103256.59
2022-11-12T04:26:14.000Z,103261.13
2022-11-12T04:29:27.193Z,103197.91
2022-11-12T04:32:14.113Z,103193.88
2022-11-12T04:35:06.308Z,103248.91
2022-11-12T04:37:53.554Z,103183.78
2022-11-12T04:41:00.361Z,103214.03
2022-11-12T04:44:04.687Z,103048.22
2022-11-12T04:46:51.621Z,103221.06
2022-11-12T04:49:38.472Z,103042.34
2022-11-12T04:52:27.589Z,103158.09
2022-11-12T04:55:14.945Z,103191.69
2022-11-12T04:58:02.092Z,103002.66
2022-11-12T05:00:49.550Z,103112.72
2022-11-12T05:03:36.578Z,103025.97
2022-11-12T05:06:40.953Z,103047.28
2022-11-12T05:09:30.904Z,103225.34
2022-11-12T05:12:17.524Z,103200.03
2022-11-12T05:15:05.895Z,103062.75
2022-11-12T05:17:53.354Z,103128.88
2022-11-12T05:20:40.442Z,103172.19
2022-11-12T05:23:27.410Z,103166.78
2022-11-12T05:26:16.553Z,103189.56
2022-11-12T05:29:08.590Z,103115.00
2022-11-12T05:31:56.495Z,103206.59
2022-11-12T05:34:44.063Z,103188.53
2022-11-12T05:37:31.825Z,103110.13
2022-11-12T05:40:22.149Z,103059.59
2022-11-12T05:43:10.688Z,103210.41
2022-11-12T05:45:57.789Z,103211.34
2022-11-12T05:48:44.927Z,103179.41
2022-11-12T05:51:35.593Z,103141.72
2022-11-12T05:54:25.049Z,103152.66
2022-11-12T05:57:12.475Z,103124.81
2022-11-12T06:00:01.039Z,103141.72
2022-11-12T06:02:48.416Z,102872.41
2022-11-12T06:05:36.329Z,103188.31
2022-11-12T06:08:23.494Z,102981.25
2022-11-12T06:11:10.263Z,103205.47
2022-11-12T06:13:57.159Z,103117.91
2022-11-12T06:16:45.666Z,103043.00
2022-11-12T06:19:32.637Z,103205.13
2022-11-12T06:22:19.930Z,103165.06
2022-11-12T06:25:08.020Z,103230.75
2022-11-12T06:27:55.247Z,103227.38
2022-11-12T06:30:42.381Z,103229.16
2022-11-12T06:33:31.514Z,103233.03
2022-11-12T06:36:21.487Z,103006.28
2022-11-12T06:39:08.718Z,103171.38
2022-11-12T06:41:55.828Z,103240.00
2022-11-12T06:44:43.472Z,103211.44
2022-11-12T06:47:30.947Z,103209.53
2022-11-12T06:50:19.584Z,103217.34
2022-11-12T06:53:06.409Z,103243.16
2022-11-12T06:55:54.524Z,103036.16
2022-11-12T06:58:42.016Z,103221.94
2022-11-12T07:01:29.519Z,103225.34
2022-11-12T07:04:17.070Z,103221.72
2022-11-12T07:07:09.456Z,103252.31
2022-11-12T07:09:57.648Z,103204.78
2022-11-12T07:12:47.938Z,103221.81
2022-11-12T07:15:39.575Z,103086.66
2022-11-12T07:18:27.147Z,103193.41
2022-11-12T07:21:17.637Z,103257.50
2022-11-12T07:24:06.646Z,103207.25
2022-11-12T07:26:53.904Z,103010.13
2022-11-12T07:29:49.022Z,103207.03
2022-11-12T07:32:40.250Z,103191.69
2022-11-12T07:35:31.025Z,103232.50
2022-11-12T07:38:17.972Z,103239.19
2022-11-12T07:41:09.156Z,103110.16
2022-11-12T07:43:56.233Z,103250.69
2022-11-12T07:46:43.170Z,103224.53
2022-11-12T07:49:30.409Z,103263.00
2022-11-12T07:52:17.816Z,103235.72
2022-11-12T07:55:05.629Z,103273.59
2022-11-12T07:57:54.380Z,103272.94
2022-11-12T08:00:41.704Z,103032.41
2022-11-12T08:03:29.010Z,103269.97
2022-11-12T08:06:15.773Z,103243.03
2022-11-12T08:09:05.562Z,103216.50
2022-11-12T08:11:52.570Z,103270.28
2022-11-12T08:14:41.065Z,103273.31
2022-11-12T08:17:28.084Z,103239.22
2022-11-12T08:20:16.204Z,103266.06
2022-11-12T08:23:03.329Z,103275.53
2022-11-12T08:25:50.183Z,103263.19
2022-11-12T08:28:38.555Z,103206.66
2022-11-12T08:31:27.423Z,103175.25
2022-11-12T08:34:22.368Z,103262.97
2022-11-12T08:37:10.193Z,103144.53
2022-11-12T08:39:57.179Z,102995.22
2022-11-12T08:42:44.289Z,103245.03
2022-11-12T08:45:34.438Z,103257.75
2022-11-12T08:48:23.162Z,103279.34
2022-11-12T08:51:10.643Z,103254.41
2022-11-12T08:53:57.457Z,103301.41
2022-11-12T08:56:44.506Z,103233.97
2022-11-12T08:59:31.769Z,103063.06
2022-11-12T09:02:18.861Z,103155.03
2022-11-12T09:05:08.541Z,103142.94
2022-11-12T09:07:59.713Z,103289.03
2022-11-12T09:10:47.162Z,103280.50
2022-11-12T09:13:34.974Z,103297.72
2022-11-12T09:16:24.192Z,103271.78
2022-11-12T09:19:11.554Z,103294.81
2022-11-12T09:22:00.123Z,103187.53
2022-11-12T09:24:47.261Z,103267.19
2022-11-12T09:27:34.337Z,103287.00
2022-11-12T09:30:21.405Z,103289.03
2022-11-12T09:33:08.407Z,103283.03
2022-11-12T09:35:55.674Z,103232.56
2022-11-12T09:38:44.226Z,103284.31
2022-11-12T09:41:37.584Z,103245.84
2022-11-12T09:44:24.682Z,103253.09
2022-11-12T09:47:18.290Z,103253.88
2022-11-12T09:50:21.300Z,103173.09
2022-11-12T09:53:17.678Z,103296.25
2022-11-12T09:56:12.298Z,103293.56
2022-11-12T09:58:59.409Z,103262.72
2022-11-12T10:02:02.023Z,103264.94
2022-11-12T10:05:04.238Z,103303.56
2022-11-12T10:08:06.820Z,103279.94
2022-11-12T10:11:04.432Z,103275.81
2022-11-12T10:14:04.816Z,103286.84
2022-11-12T10:17:00.485Z,103297.84
2022-11-12T10:20:00.044Z,103250.91
2022-11-12T10:23:07.498Z,103275.00
2022-11-12T10:25:58.809Z,103251.72
2022-11-12T10:28:49.403Z,103260.13
2022-11-12T10:31:37.737Z,103236.09
2022-11-12T10:34:26.184Z,103285.22
2022-11-12T10:37:20.101Z,103262.22
2022-11-12T10:40:31.531Z,103292.06
2022-11-12T10:43:24.359Z,103281.41
2022-11-12T10:46:21.378Z,103266.56
2022-11-12T10:49:26.104Z,103271.72
2022-11-12T10:52:24.896Z,103271.81
2022-11-12T10:55:19.768Z,103238.25
2022-11-12T10:58:20.970Z,103241.53
2022-11-12T11:01:17.686Z,103240.38
2022-11-12T11:04:05.400Z,103112.38
2022-11-12T11:07:05.816Z,103180.44
2022-11-12T11:09:58.074Z,103206.34
2022-11-12T11:12:45.328Z,103194.81
2022-11-12T11:15:32.537Z,103211.25
2022-11-12T11:18:19.734Z,103161.81
2022-11-12T11:21:31.006Z,103211.84
2022-11-12T11:24:34.085Z,103167.06
2022-11-12T11:27:33.419Z,103175.81
2022-11-12T11:30:22.264Z,103137.00
2022-11-12T11:33:39.393Z,103164.69
2022-11-12T11:36:36.136Z,103165.31
2022-11-12T11:39:36.381Z,103144.41
2022-11-12T11:42:49.605Z,103129.06
2022-11-12T11:46:03.396Z,103083.41
2022-11-12T11:49:16.356Z,103121.38
2022-11-12T11:52:21.381Z,103072.72
2022-11-12T11:55:36.769Z,103086.38
2022-11-12T11:58:56.252Z,103083.38
2022-11-12T12:02:05.669Z,103090.81
2022-11-12T12:04:57.526Z,103098.59
2022-11-12T12:07:57.016Z,103124.34
2022-11-12T12:11:13.293Z,103092.50
2022-11-12T12:14:34.106Z,103062.47
2022-11-12T12:17:38.855Z,103100.16
2022-11-12T12:20:35.401Z,103082.47
2022-11-12T12:23:31.058Z,103028.13
2022-11-12T12:26:25.004Z,103061.50
2022-11-12T12:29:17.268Z,103072.63
2022-11-12T12:32:13.413Z,103070.81
2022-11-12T12:35:07.975Z,103032.88
2022-11-12T12:38:07.914Z,103005.31
2022-11-12T12:41:03.805Z,103007.19
2022-11-12T12:43:58.188Z,103009.94
2022-11-12T12:46:49.037Z,103018.00
2022-11-12T12:49:40.042Z,103053.56
2022-11-12T12:52:28.003Z,103047.34
2022-11-12T12:55:42.409Z,103049.16
2022-11-12T12:58:33.469Z,102974.56
2022-11-12T13:01:34.240Z,103028.09
2022-11-12T13:04:55.212Z,103005.00
2022-11-12T13:07:45.876Z,103022.84
2022-11-12T13:10:53.807Z,102995.41
2022-11-12T13:13:40.910Z,103025.69
2022-11-12T13:16:59.320Z,103016.94
2022-11-12T13:20:08.760Z,103009.84
2022-11-12T13:22:57.323Z,103007.16
2022-11-12T13:25:44.341Z,103019.72
2022-11-12T13:28:32.218Z,103018.78
2022-11-12T13:31:30.631Z,102998.25
2022-11-12T13:34:30.929Z,102876.97
2022-11-12T13:37:22.556Z,102966.13
2022-11-12T13:40:17.698Z,102990.25
2022-11-12T13:43:34.706Z,102807.53
2022-11-12T13:46:30.597Z,102989.19
2022-11-12T13:49:18.961Z,102994.63
2022-11-12T13:52:07.528Z,102980.28
2022-11-12T13:55:03.356Z,102951.63
2022-11-12T13:57:53.260Z,102983.88
2022-11-12T14:00:40.682Z,102995.38
2022-11-12T14:03:32.005Z,102985.59
2022-11-12T14:06:28.599Z,103000.59
2022-11-12T14:09:39.718Z,102929.31
2022-11-12T14:12:54.839Z,102995.19
2022-11-12T14:16:06.325Z,102958.53
2022-11-12T14:19:36.810Z,102997.56
2022-11-12T14:22:24.821Z,102943.00
2022-11-12T14:25:20.146Z,102939.50
2022-11-12T14:28:25.951Z,102994.59
2022-11-12T14:31:16.892Z,102985.78
2022-11-12T14:34:23.013Z,102961.03
2022-11-12T14:37:42.633Z,102989.75
2022-11-12T14:40:33.660Z,102968.41
2022-11-12T14:43:30.960Z,102983.34
2022-11-12T14:46:29.944Z,102975.25
2022-11-12T14:49:24.074Z,102978.59
2022-11-12T14:52:17.027Z,102965.81
2022-11-12T14:55:11.272Z,102866.50
2022-11-12T14:57:59.626Z,102982.19
2022-11-12T15:00:49.196Z,102718.72
2022-11-12T15:03:37.741Z,102966.59
2022-11-12T15:06:34.630Z,102958.25
2022-11-12T15:09:34.164Z,102927.63
2022-11-12T15:12:25.257Z,102961.19
2022-11-12T15:15:22.196Z,102979.44
2022-11-12T15:18:18.955Z,102978.06
2022-11-12T15:21:15.665Z,102806.09
2022-11-12T15:24:17.075Z,102902.91
2022-11-12T15:27:36.508Z,102981.00
2022-11-12T15:30:27.226Z,102961.81
2022-11-12T15:33:23.536Z,102972.81
2022-11-12T15:36:20.195Z,102959.16
2022-11-12T15:39:15.334Z,102988.22
2022-11-12T15:42:05.410Z,102967.03
2022-11-12T15:44:59.365Z,102986.59
2022-11-12T15:47:47.235Z,102979.81
2022-11-12T15:50:34.677Z,102983.97
2022-11-12T15:53:22.982Z,102965.75
2022-11-12T15:56:13.053Z,102973.19
2022-11-12T15:58:59.942Z,102805.44
2022-11-12T16:01:47.464Z,102868.31
2022-11-12T16:04:34.687Z,102976.00
2022-11-12T16:07:21.737Z,102978.53
2022-11-12T16:10:15.768Z,102988.56
2022-11-12T16:13:04.716Z,102984.78
2022-11-12T16:15:52.808Z,102960.41
2022-11-12T16:18:39.942Z,102936.69
2022-11-12T16:21:27.372Z,102959.63
2022-11-12T16:24:14.293Z,102986.66
2022-11-12T16:27:04.788Z,102944.97
2022-11-12T16:29:52.242Z,102908.09
2022-11-12T16:32:39.705Z,102928.94
2022-11-12T16:35:27.973Z,102988.56
2022-11-12T16:38:18.238Z,102991.75
2022-11-12T16:41:07.841Z,102934.91
2022-11-12T16:43:56.526Z,102947.25
2022-11-12T16:46:43.959Z,102984.63
2022-11-12T16:49:34.521Z,102964.50
2022-11-12T16:52:25.940Z,102988.31
2022-11-12T16:55:13.212Z,102881.38
2022-11-12T16:58:00.381Z,102989.47
2022-11-12T17:00:51.283Z,102703.72
2022-11-12T17:03:38.543Z,102959.16
2022-11-12T17:06:33.874Z,102988.41
2022-11-12T17:09:20.850Z,102871.91
2022-11-12T17:12:08.210Z,103001.78
2022-11-12T17:14:55.122Z,102980.78
2022-11-12T17:17:43.637Z,102990.00
2022-11-12T17:20:30.789Z,103004.16
2022-11-12T17:23:18.136Z,102982.63
2022-11-12T17:26:19.913Z,102985.78
2022-11-12T17:29:09.825Z,103007.09
2022-11-12T17:31:57.060Z,103002.50
2022-11-12T17:34:45.673Z,103008.59
2022-11-12T17:37:32.688Z,103013.63
2022-11-12T17:40:20.195Z,103006.81
2022-11-12T17:43:06.961Z,102991.44
2022-11-12T17:45:56.326Z,102929.50
2022-11-12T17:48:43.476Z,102997.53
2022-11-12T17:51:32.263Z,103013.31
2022-11-12T17:54:19.123Z,102867.97
2022-11-12T17:57:06.416Z,103009.41
2022-11-12T17:59:53.638Z,102933.78
2022-11-12T18:02:41.033Z,102942.69
2022-11-12T18:05:28.458Z,102985.38
2022-11-12T18:08:20.267Z,102929.63
2022-11-12T18:11:08.371Z,102944.63
2022-11-12T18:13:55.635Z,102960.09
2022-11-12T18:16:43.042Z,103006.69
2022-11-12T18:19:30.742Z,103017.09
2022-11-12T18:22:22.537Z,102956.19
2022-11-12T18:25:11.788Z,103017.03
2022-11-12T18:27:59.042Z,102702.19
2022-11-12T18:30:46.483Z,102690.63
2022-11-12T18:33:36.136Z,102811.84
2022-11-12T18:36:51.859Z,102854.72
2022-11-12T18:39:39.554Z,103009.69
2022-11-12T18:42:29.820Z,102820.09
2022-11-12T18:45:17.179Z,102813.00
2022-11-12T18:48:06.728Z,103029.00
2022-11-12T18:50:54.560Z,102779.53
2022-11-12T18:53:43.006Z,103008.31
2022-11-12T18:56:29.906Z,102911.25
2022-11-12T18:59:18.599Z,102892.00
2022-11-12T19:02:06.103Z,102890.97
2022-11-12T19:05:13.642Z,102906.94
2022-11-12T19:08:01.129Z,102764.78
2022-11-12T19:10:48.238Z,102949.81
2022-11-12T19:13:36.104Z,102994.97
2022-11-12T19:16:27.775Z,102796.41
2022-11-12T19:19:15.396Z,102921.97
2022-11-12T19:22:02.542Z,102997.00
2022-11-12T19:24:49.737Z,102963.53
2022-11-12T19:27:36.941Z,102957.00
2022-11-12T19:30:26.031Z,102814.69
2022-11-12T19:33:14.321Z,102709.59
2022-11-12T19:36:06.364Z,102964.66
2022-11-12T19:38:59.295Z,102851.03
2022-11-12T19:41:46.700Z,103013.13
2022-11-12T19:44:34.260Z,102860.59
2022-11-12T19:47:21.765Z,102827.38
2022-11-12T19:50:11.300Z,102841.00
2022-11-12T19:52:58.449Z,102856.91
2022-11-12T19:55:45.664Z,102839.47
2022-11-12T19:58:34.353Z,102688.75
2022-11-12T20:01:21.972Z,102990.41
2022-11-12T20:04:09.032Z,102917.59
2022-11-12T20:06:57.524Z,102831.88
2022-11-12T20:09:50.985Z,102722.72
2022-11-12T20:12:40.106Z,102642.84
2022-11-12T20:15:27.461Z,102921.22
2022-11-12T20:18:14.918Z,102979.28
2022-11-12T20:21:04.964Z,102985.50
2022-11-12T20:23:53.747Z,102912.03
2022-11-12T20:26:40.481Z,102942.78
2022-11-12T20:29:28.574Z,102921.50
2022-11-12T20:32:19.182Z,102778.09
2022-11-12T20:35:14.132Z,102865.31
2022-11-12T20:38:03.773Z,102941.00
2022-11-12T20:41:00.146Z,102690.69
2022-11-12T20:43:47.618Z,102955.88
2022-11-12T20:46:34.738Z,102890.38
2022-11-12T20:49:22.047Z,102896.50
2022-11-12T20:52:09.512Z,102802.66
2022-11-12T20:54:57.012Z,102908.25
2022-11-12T20:57:46.353Z,102893.06
2022-11-12T21:00:33.934Z,102756.41
2022-11-12T21:03:21.660Z,102899.13
2022-11-12T21:06:11.650Z,102665.47
2022-11-12T21:09:02.060Z,102899.00
2022-11-12T21:11:49.267Z,102760.06
2022-11-12T21:14:37.929Z,102886.38
2022-11-12T21:17:28.004Z,102710.72
2022-11-12T21:20:15.204Z,102819.84
2022-11-12T21:23:02.981Z,102898.31
2022-11-12T21:25:50.306Z,102951.25
2022-11-12T21:28:38.619Z,102806.41
2022-11-12T21:31:29.756Z,102844.41
2022-11-12T21:34:16.882Z,102911.66
2022-11-12T21:37:04.286Z,102781.66
2022-11-12T21:39:51.825Z,102943.34
2022-11-12T21:42:42.647Z,102796.66
2022-11-12T21:45:29.825Z,102823.72
2022-11-12T21:48:18.558Z,102908.16
2022-11-12T21:51:07.302Z,102822.75
2022-11-12T21:53:57.274Z,102928.66
2022-11-12T21:56:45.226Z,102920.81
2022-11-12T21:59:37.073Z,102863.44
2022-11-12T22:02:24.508Z,102949.06
2022-11-12T22:05:13.935Z,102737.34
2022-11-12T22:08:01.427Z,102853.69
2022-11-12T22:10:51.117Z,102593.22
2022-11-12T22:13:39.571Z,102603.78
2022-11-12T22:16:30.197Z,102552.78
2022-11-12T22:19:19.423Z,102937.84
2022-11-12T22:22:08.016Z,102817.47
2022-11-12T22:24:55.366Z,102934.59
2022-11-12T22:27:42.657Z,102830.28
2022-11-12T22:30:29.960Z,102843.81
2022-11-12T22:33:17.146Z,102891.97
2022-11-12T22:36:05.426Z,102854.00
2022-11-12T22:38:58.096Z,102845.63
2022-11-12T22:41:48.076Z,102860.91
2022-11-12T22:44:35.336Z,102916.31
2022-11-12T22:47:22.339Z,102925.78
2022-11-12T22:50:11.256Z,102884.94
2022-11-12T22:52:58.075Z,102908.38
2022-11-12T22:55:46.378Z,102889.03
2022-11-12T22:58:37.474Z,102921.63
2022-11-12T23:01:27.175Z,102921.00
2022-11-12T23:04:14.545Z,102839.94
2022-11-12T23:07:01.342Z,102921.91
2022-11-12T23:09:48.301Z,102920.78
2022-11-12T23:12:37.283Z,102686.72
2022-11-12T23:15:24.466Z,102860.31
2022-11-12T23:18:11.719Z,102755.81
2022-11-12T23:21:07.952Z,102834.97
2022-11-12T23:23:57.112Z,102903.94
2022-11-12T23:26:44.217Z,102786.22
2022-11-12T23:29:32.759Z,102871.25
2022-11-12T23:32:19.773Z,102687.50
2022-11-12T23:35:08.179Z,102694.81
2022-11-12T23:37:55.332Z,102625.59
2022-11-12T23:40:42.613Z,102718.69
2022-11-12T23:43:29.874Z,102826.72
2022-11-12T23:46:18.612Z,102862.03
2022-11-12T23:49:05.924Z,102621.78
2022-11-12T23:51:52.739Z,102804.13
2022-11-12T23:54:39.615Z,102868.09
2022-11-12T23:57:26.787Z,102781.94
